createdAt,value
2018-08-28T00:04:05.890Z,5.97
2018-08-28T00:09:10.336Z,6.60
2018-08-28T00:14:14.922Z,6.27
2018-08-28T00:19:19.345Z,6.00
2018-08-28T00:24:24.014Z,5.93
2018-08-28T00:29:28.519Z,6.47
2018-08-28T00:34:33.101Z,5.77
2018-08-28T00:39:37.589Z,5.90
2018-08-28T00:44:42.018Z,6.33
2018-08-28T00:49:47.037Z,6.03
2018-08-28T00:54:51.463Z,6.80
2018-08-28T00:59:56.028Z,6.60
2018-08-28T01:05:00.878Z,6.77
2018-08-28T01:10:05.701Z,6.07
2018-08-28T01:15:10.240Z,6.37
2018-08-28T01:20:14.872Z,6.20
2018-08-28T01:25:19.453Z,6.30
2018-08-28T01:30:29.174Z,6.27
2018-08-28T01:35:33.607Z,6.80
2018-08-28T01:40:38.173Z,5.90
2018-08-28T01:45:43.234Z,6.40
2018-08-28T01:50:48.059Z,6.30
2018-08-28T01:55:52.623Z,5.97
2018-08-28T02:00:57.125Z,6.00
2018-08-28T02:06:01.659Z,5.90
2018-08-28T02:11:06.238Z,6.10
2018-08-28T02:16:10.983Z,5.80
2018-08-28T02:21:15.488Z,6.10
2018-08-28T02:26:20.096Z,5.43
2018-08-28T02:31:24.999Z,5.67
2018-08-28T02:36:30.066Z,6.43
2018-08-28T02:41:34.452Z,5.90
2018-08-28T02:46:39.320Z,6.90
2018-08-28T02:51:44.325Z,6.00
2018-08-28T02:56:48.715Z,5.90
2018-08-28T03:01:53.259Z,6.40
2018-08-28T03:06:58.434Z,6.40
2018-08-28T03:12:04.439Z,5.53
2018-08-28T03:17:08.882Z,6.53
2018-08-28T03:22:13.745Z,5.93
2018-08-28T03:27:18.276Z,6.27
2018-08-28T03:32:22.781Z,6.90
2018-08-28T03:37:27.346Z,6.43
2018-08-28T03:42:31.929Z,6.07
2018-08-28T03:47:36.373Z,7.17
2018-08-28T03:52:40.965Z,6.60
2018-08-28T03:57:45.469Z,7.00
2018-08-28T04:02:50.029Z,6.40
2018-08-28T04:07:54.575Z,7.20
2018-08-28T04:12:59.319Z,7.60
2018-08-28T04:18:04.125Z,7.33
2018-08-28T04:23:08.892Z,7.77
2018-08-28T04:28:13.534Z,6.70
2018-08-28T04:33:18.996Z,7.33
2018-08-28T04:38:23.584Z,7.43
2018-08-28T04:43:28.448Z,7.00
2018-08-28T04:48:33.316Z,8.07
2018-08-28T04:53:37.753Z,7.03
2018-08-28T04:58:42.301Z,6.97
2018-08-28T05:03:47.478Z,7.40
2018-08-28T05:08:52.007Z,6.93
2018-08-28T05:13:56.313Z,6.30
2018-08-28T05:19:00.588Z,7.67
2018-08-28T05:24:05.084Z,7.77
2018-08-28T05:29:09.568Z,7.20
2018-08-28T05:34:13.892Z,7.53
2018-08-28T05:39:18.861Z,7.93
2018-08-28T05:44:23.746Z,7.30
2018-08-28T05:49:28.724Z,7.03
2018-08-28T05:54:33.250Z,7.80
2018-08-28T05:59:37.664Z,8.27
2018-08-28T06:04:42.008Z,7.47
2018-08-28T06:09:46.475Z,7.20
2018-08-28T06:14:51.642Z,6.90
2018-08-28T06:19:56.296Z,7.67
2018-08-28T06:25:01.612Z,7.30
2018-08-28T06:30:06.281Z,8.20
2018-08-28T06:35:10.761Z,7.47
2018-08-28T06:40:15.124Z,7.87
2018-08-28T06:45:19.453Z,7.97
2018-08-28T06:50:23.673Z,8.67
2018-08-28T06:55:27.985Z,8.60
2018-08-28T07:00:32.442Z,8.70
2018-08-28T07:05:37.029Z,8.57
2018-08-28T07:10:41.573Z,8.70
2018-08-28T07:15:47.475Z,7.80
2018-08-28T07:20:52.044Z,8.50
2018-08-28T07:25:56.496Z,9.03
2018-08-28T07:31:00.903Z,9.17
2018-08-28T07:36:05.248Z,8.53
2018-08-28T07:41:09.685Z,8.70
2018-08-28T07:46:14.005Z,8.70
2018-08-28T07:51:18.449Z,9.90
2018-08-28T07:56:22.993Z,8.70
2018-08-28T08:01:27.433Z,9.70
2018-08-28T08:06:32.281Z,10.30
2018-08-28T08:11:36.668Z,8.30
2018-08-28T08:16:41.172Z,8.13
2018-08-28T08:21:45.639Z,9.23
2018-08-28T08:26:50.161Z,8.90
2018-08-28T08:31:54.748Z,8.83
2018-08-28T08:37:02.511Z,8.50
2018-08-28T08:42:07.261Z,8.57
2018-08-28T08:47:11.800Z,8.70
2018-08-28T08:52:16.403Z,8.53
2018-08-28T08:57:21.000Z,8.43
2018-08-28T09:02:25.512Z,8.33
2018-08-28T09:07:30.009Z,8.17
2018-08-28T09:12:34.568Z,8.10
2018-08-28T09:17:39.247Z,7.47
2018-08-28T09:22:44.212Z,6.80
2018-08-28T09:27:48.857Z,7.17
2018-08-28T09:32:53.386Z,7.70
2018-08-28T09:37:57.811Z,6.93
2018-08-28T09:43:02.187Z,6.93
2018-08-28T09:48:06.745Z,7.17
2018-08-28T09:53:11.619Z,7.77
2018-08-28T09:58:16.034Z,5.70
2018-08-28T10:03:20.615Z,6.73
2018-08-28T10:08:25.196Z,4.67
2018-08-28T10:13:29.962Z,5.23
2018-08-28T10:18:34.407Z,5.00
2018-08-28T10:23:39.586Z,4.53
2018-08-28T10:28:44.156Z,6.00
2018-08-28T10:33:48.772Z,5.47
2018-08-28T10:38:53.287Z,5.20
2018-08-28T10:43:57.829Z,4.90
2018-08-28T10:49:02.372Z,4.37
2018-08-28T10:54:06.945Z,5.20
2018-08-28T10:59:11.339Z,4.97
2018-08-28T11:04:16.614Z,5.13
2018-08-28T11:09:21.060Z,4.37
2018-08-28T11:14:26.576Z,4.47
2018-08-28T11:19:31.151Z,4.63
2018-08-28T11:24:35.889Z,5.47
2018-08-28T11:29:40.335Z,5.37
2018-08-28T11:34:44.606Z,5.33
2018-08-28T11:39:49.211Z,4.67
2018-08-28T11:44:53.550Z,4.70
2018-08-28T11:49:57.897Z,4.83
2018-08-28T11:55:02.253Z,5.27
2018-08-28T12:00:08.114Z,5.63
2018-08-28T12:05:14.196Z,4.87
2018-08-28T12:10:19.209Z,5.17
2018-08-28T12:15:23.804Z,5.40
2018-08-28T12:20:28.856Z,4.23
2018-08-28T12:25:33.926Z,5.53
2018-08-28T12:30:38.356Z,5.47
2018-08-28T12:35:42.817Z,6.03
2018-08-28T12:40:47.355Z,5.40
2018-08-28T12:45:51.919Z,5.93
2018-08-28T12:50:56.304Z,5.37
2018-08-28T12:56:00.652Z,5.27
2018-08-28T13:01:05.088Z,5.37
2018-08-28T13:06:09.813Z,5.03
2018-08-28T13:11:14.204Z,5.07
2018-08-28T13:16:18.544Z,4.77
2018-08-28T13:21:23.402Z,5.27
2018-08-28T13:26:27.727Z,4.93
2018-08-28T13:31:32.884Z,5.00
2018-08-28T13:36:37.330Z,5.37
2018-08-28T13:41:41.679Z,4.90
2018-08-28T13:46:46.020Z,5.20
2018-08-28T13:51:50.376Z,4.77
2018-08-28T13:56:54.666Z,5.20
2018-08-28T14:01:59.145Z,5.37
2018-08-28T14:07:03.846Z,5.17
2018-08-28T14:12:08.356Z,5.70
2018-08-28T14:17:12.777Z,5.03
2018-08-28T14:22:18.190Z,5.33
2018-08-28T14:27:22.672Z,5.20
2018-08-28T14:32:27.065Z,5.10
2018-08-28T14:37:31.471Z,5.17
2018-08-28T14:42:36.038Z,5.27
2018-08-28T14:47:40.416Z,4.73
2018-08-28T14:52:44.810Z,5.13
2018-08-28T14:57:49.337Z,5.60
2018-08-28T15:02:53.675Z,5.03
2018-08-28T15:07:58.256Z,5.10
2018-08-28T15:13:02.687Z,5.10
2018-08-28T15:18:07.835Z,4.37
2018-08-28T15:23:12.371Z,5.50
2018-08-28T15:28:16.706Z,5.17
2018-08-28T15:33:21.150Z,4.73
2018-08-28T15:38:25.634Z,5.07
2018-08-28T15:43:30.319Z,5.20
2018-08-28T15:48:34.768Z,5.63
2018-08-28T15:53:39.289Z,5.83
2018-08-28T15:58:43.533Z,5.53
2018-08-28T16:03:47.903Z,6.17
2018-08-28T16:08:52.273Z,5.43
2018-08-28T16:13:56.586Z,5.37
2018-08-28T16:19:00.924Z,4.80
2018-08-28T16:24:05.240Z,5.50
2018-08-28T16:29:09.923Z,5.30
2018-08-28T16:34:14.371Z,5.83
2018-08-28T16:39:18.708Z,5.87
2018-08-28T16:44:23.055Z,5.93
2018-08-28T16:49:27.370Z,5.70
2018-08-28T16:54:31.731Z,5.70
2018-08-28T16:59:36.077Z,5.40
2018-08-28T17:04:40.407Z,5.70
2018-08-28T17:09:44.983Z,5.60
2018-08-28T17:14:49.692Z,5.47
2018-08-28T17:19:54.042Z,5.50
2018-08-28T17:24:58.487Z,5.40
2018-08-28T17:30:02.932Z,5.30
2018-08-28T17:35:07.355Z,5.03
2018-08-28T17:40:11.717Z,4.90
2018-08-28T17:45:16.091Z,4.70
2018-08-28T17:50:20.695Z,5.67
2018-08-28T17:55:25.395Z,5.10
2018-08-28T18:00:29.796Z,5.00
2018-08-28T18:05:34.121Z,5.40
2018-08-28T18:10:38.515Z,5.50
2018-08-28T18:15:42.923Z,5.60
2018-08-28T18:20:47.163Z,5.60
2018-08-28T18:25:51.495Z,5.60
2018-08-28T18:30:55.767Z,5.53
2018-08-28T18:36:00.940Z,5.03
2018-08-28T18:41:05.493Z,5.53
2018-08-28T18:46:10.429Z,5.30
2018-08-28T18:51:14.825Z,5.60
2018-08-28T18:56:19.172Z,5.77
2018-08-28T19:01:23.503Z,5.37
2018-08-28T19:06:27.849Z,5.77
2018-08-28T19:11:32.168Z,6.20
2018-08-28T19:16:36.431Z,5.30
2018-08-28T19:21:40.808Z,5.60
2018-08-28T19:26:45.313Z,5.83
2018-08-28T19:31:49.703Z,6.10
2018-08-28T19:36:54.168Z,5.53
2018-08-28T19:41:58.527Z,5.70
2018-08-28T19:47:02.852Z,5.60
2018-08-28T19:52:07.207Z,5.60
2018-08-28T19:57:11.546Z,5.93
2018-08-28T20:02:15.803Z,5.40
2018-08-28T20:07:20.056Z,5.80
2018-08-28T20:12:24.389Z,6.03
2018-08-28T20:17:28.814Z,6.10
2018-08-28T20:22:33.239Z,5.83
2018-08-28T20:27:37.691Z,6.03
2018-08-28T20:32:42.135Z,6.13
2018-08-28T20:37:46.565Z,5.37
2018-08-28T20:42:51.054Z,6.27
2018-08-28T20:47:55.464Z,6.07
2018-08-28T20:52:59.809Z,5.30
2018-08-28T20:58:04.199Z,5.57
2018-08-28T21:03:08.517Z,5.90
2018-08-28T21:08:13.039Z,6.27
2018-08-28T21:13:17.463Z,5.37
2018-08-28T21:18:21.908Z,5.87
2018-08-28T21:23:26.358Z,5.80
2018-08-28T21:28:30.691Z,4.93
2018-08-28T21:33:35.053Z,5.20
2018-08-28T21:38:39.408Z,5.53
2018-08-28T21:43:43.815Z,5.10
2018-08-28T21:48:48.139Z,4.80
2018-08-28T21:53:52.420Z,5.20
2018-08-28T21:58:56.700Z,5.43
2018-08-28T22:04:01.781Z,5.17
2018-08-28T22:09:06.736Z,5.17
2018-08-28T22:14:11.775Z,5.10
2018-08-28T22:19:16.145Z,4.60
2018-08-28T22:24:20.459Z,5.00
2018-08-28T22:29:24.805Z,5.10
2018-08-28T22:34:29.118Z,5.03
2018-08-28T22:39:34.094Z,5.17
2018-08-28T22:44:38.441Z,4.83
2018-08-28T22:49:43.649Z,5.00
2018-08-28T22:54:47.933Z,5.17
2018-08-28T22:59:52.579Z,5.20
2018-08-28T23:04:58.353Z,4.60
2018-08-28T23:10:04.636Z,5.00
2018-08-28T23:15:09.219Z,5.30
2018-08-28T23:20:15.977Z,4.97
2018-08-28T23:25:20.218Z,5.13
2018-08-28T23:30:25.269Z,5.00
2018-08-28T23:35:29.626Z,5.10
2018-08-28T23:40:33.970Z,4.90
2018-08-28T23:45:38.298Z,5.40
2018-08-28T23:50:42.555Z,5.10
2018-08-28T23:55:47.282Z,4.97
